Aérodrome :
LOGIN :

S'inscrire | Disclaimer

   EN    FR    IT 

 










Légende :    VFR   VFR Marginal   IFR   IFR Intensif   IFR Très Intensif
Visi : 
Plafond : 
>= 8 km
>= 3000ft
5 à 8 km
1000 à 3000 ft
1500m à 5 km
500 à 1000 ft
800 à 1500m
200 à 500 ft
< 800m
< 200 ft
Symboles :   Orages  Brouillard  Fortes neiges  Fortes précipitations  Vent > 20 kt
SIGMETs :   Divers  Orages  Givrage  Turbulence  Onde Orograph.  Cendres Volcan.







- Altitude de l'aérodrome : 245 ft
- Code IATA : BIQ
- Voir les cartes d'approche


LFBZ - Biarritz

DERNIER METAR :
  • 181430Z AUTO 20009KT 160V270 CAVOK 16/M04 Q1014 TEMPO 19015G30KT

METARs EXPIRÉS :
  • 181400Z AUTO 20009G21KT 150V250 CAVOK 16/M04 Q1014 NOSIG
  • 181330Z AUTO 20003KT 140V300 CAVOK 16/M05 Q1014 TEMPO 19015G30KT
  • 181300Z AUTO 19004KT 140V260 CAVOK 16/M04 Q1014 TEMPO 18015G25KT
  • 181230Z AUTO 17006KT 120V210 CAVOK 16/M05 Q1014 TEMPO 18015G25KT
  • 181200Z AUTO 19011KT 140V240 CAVOK 16/M05 Q1014 TEMPO 18015G25KT

TAF TAF LFBZ
Valide du 18 à 12h jusqu'au 19 à 12h UTC


181100Z 1812/1912 18012KT CAVOK
TEMPO 1812/1814 18015G25KT
TEMPO 1815/1819 19015G30KT
FM181900 24010KT 9999 BKN050
TEMPO 1819/1901 4000 -RA
BECMG 1901/1903 17006KT CAVOK
BECMG 1910/1912 25015G25KT
Pas de NOTAMs connus pour ce terrain.
2 SIGMETs publiés pour la FIR Bordeaux (LFBB) :
 
Turbulence forte
LFBB SIGMET 5 VALID 181300/181600 LFPW
LFBB BORDEAUX FIR/UIR SEV TURB FCST WI N4415 E00245 - N4300 E00230 - N4330 E00100 - N4345 E00115 - N4430 E00230 - N4415 E00245 SFC/FL060 STNR NC=
Turbulence forte
LFBB SIGMET 4 VALID 181200/181600 LFPW
LFBB BORDEAUX FIR/UIR SEV TURB FCST WI N4230 E00045 - N4300 W00145 - N4330 W00145 - N4300 E00045 - N4230 E00045 SFC/FL120 STNR NC=



MET'MAP, la Météo Aéronautique d'un coup d'oeil ! - Copyright ORBIFLY Décembre 2007 - Disclaimer

ORBIFLY MET'MAP TEAM :

Programmation & Développement : Alexandra Zaïnal
Conception & Développement : Baudouin d'Aumeries
Co-Programmation & Développement : Marc-Olivier Méhu
Soutien technique & logistique : Manuel Goepfert

Contact : metmap@orbifly.com




SOURCES & CREDITS :

   NOAA